sensor_id;sensor_type;location;lat;lon;timestamp;pressure;altitude;pressure_sealevel;temperature;humidity
24666;BME280;29726;53.532;-1.478;2024-02-04T00:00:44;101120.50;;;10.59;100.00
24666;BME280;29726;53.532;-1.478;2024-02-04T00:03:28;101130.13;;;10.58;100.00
24666;BME280;29726;53.532;-1.478;2024-02-04T00:06:12;101133.69;;;10.59;100.00
24666;BME280;29726;53.532;-1.478;2024-02-04T00:08:56;101132.59;;;10.56;100.00
24666;BME280;29726;53.532;-1.478;2024-02-04T00:11:41;101128.56;;;10.57;100.00
24666;BME280;29726;53.532;-1.478;2024-02-04T00:14:26;101135.72;;;10.58;100.00
24666;BME280;29726;53.532;-1.478;2024-02-04T00:17:10;101133.34;;;10.57;100.00
24666;BME280;29726;53.532;-1.478;2024-02-04T00:19:54;101117.03;;;10.55;100.00
24666;BME280;29726;53.532;-1.478;2024-02-04T00:22:37;101111.03;;;10.57;100.00
24666;BME280;29726;53.532;-1.478;2024-02-04T00:25:21;101095.94;;;10.54;100.00
24666;BME280;29726;53.532;-1.478;2024-02-04T00:28:05;101094.28;;;10.57;100.00
24666;BME280;29726;53.532;-1.478;2024-02-04T00:30:49;101111.81;;;10.57;100.00
24666;BME280;29726;53.532;-1.478;2024-02-04T00:33:33;101114.59;;;10.57;100.00
24666;BME280;29726;53.532;-1.478;2024-02-04T00:36:18;101101.78;;;10.47;100.00
24666;BME280;29726;53.532;-1.478;2024-02-04T00:39:02;101111.81;;;10.57;100.00
24666;BME280;29726;53.532;-1.478;2024-02-04T00:41:47;101120.50;;;10.59;100.00
24666;BME280;29726;53.532;-1.478;2024-02-04T00:44:31;101114.94;;;10.59;100.00
24666;BME280;29726;53.532;-1.478;2024-02-04T00:47:16;101118.63;;;10.56;100.00
24666;BME280;29726;53.532;-1.478;2024-02-04T00:49:59;101124.53;;;10.58;100.00
24666;BME280;29726;53.532;-1.478;2024-02-04T00:52:43;101122.97;;;10.57;100.00
24666;BME280;29726;53.532;-1.478;2024-02-04T00:55:27;101106.22;;;10.57;100.00
24666;BME280;29726;53.532;-1.478;2024-02-04T00:58:11;101112.13;;;10.59;100.00
24666;BME280;29726;53.532;-1.478;2024-02-04T01:00:55;101123.41;;;10.56;100.00
24666;BME280;29726;53.532;-1.478;2024-02-04T01:03:39;101118.75;;;10.53;100.00
24666;BME280;29726;53.532;-1.478;2024-02-04T01:06:23;101125.41;;;10.55;100.00
24666;BME280;29726;53.532;-1.478;2024-02-04T01:09:08;101135.38;;;10.56;100.00
24666;BME280;29726;53.532;-1.478;2024-02-04T01:11:52;101116.41;;;10.51;100.00
24666;BME280;29726;53.532;-1.478;2024-02-04T01:14:37;101114.25;;;10.55;100.00
24666;BME280;29726;53.532;-1.478;2024-02-04T01:17:21;101097.50;;;10.55;100.00
24666;BME280;29726;53.532;-1.478;2024-02-04T01:20:05;101129.78;;;10.56;100.00
24666;BME280;29726;53.532;-1.478;2024-02-04T01:22:49;101125.78;;;10.57;100.00
24666;BME280;29726;53.532;-1.478;2024-02-04T01:25:33;101113.84;;;10.44;100.00
24666;BME280;29726;53.532;-1.478;2024-02-04T01:28:17;101124.97;;;10.57;100.00
24666;BME280;29726;53.532;-1.478;2024-02-04T01:31:01;101118.63;;;10.56;100.00
24666;BME280;29726;53.532;-1.478;2024-02-04T01:33:45;101094.53;;;10.50;100.00
24666;BME280;29726;53.532;-1.478;2024-02-04T01:36:29;101111.47;;;10.55;100.00
24666;BME280;29726;53.532;-1.478;2024-02-04T01:39:14;101112.25;;;10.56;100.00
24666;BME280;29726;53.532;-1.478;2024-02-04T01:41:58;101137.38;;;10.56;100.00
24666;BME280;29726;53.532;-1.478;2024-02-04T01:44:42;101121.44;;;10.56;100.00
24666;BME280;29726;53.532;-1.478;2024-02-04T01:47:26;101107.09;;;10.54;100.00
24666;BME280;29726;53.532;-1.478;2024-02-04T01:50:10;101100.28;;;10.55;100.00
24666;BME280;29726;53.532;-1.478;2024-02-04T01:52:54;101093.50;;;10.56;100.00
24666;BME280;29726;53.532;-1.478;2024-02-04T01:55:39;101099.09;;;10.56;100.00
24666;BME280;29726;53.532;-1.478;2024-02-04T01:58:23;101105.56;;;10.53;100.00
24666;BME280;29726;53.532;-1.478;2024-02-04T02:01:08;101111.03;;;10.57;100.00
24666;BME280;29726;53.532;-1.478;2024-02-04T02:03:52;101115.03;;;10.56;100.00
24666;BME280;29726;53.532;-1.478;2024-02-04T02:06:38;101107.47;;;10.56;100.00
24666;BME280;29726;53.532;-1.478;2024-02-04T02:09:25;101089.13;;;10.55;100.00
24666;BME280;29726;53.532;-1.478;2024-02-04T02:12:25;101089.28;;;10.52;100.00
24666;BME280;29726;53.532;-1.478;2024-02-04T02:15:18;101064.91;;;10.52;100.00
24666;BME280;29726;53.532;-1.478;2024-02-04T02:18:17;101062.44;;;10.54;100.00
24666;BME280;29726;53.532;-1.478;2024-02-04T02:24:25;101078.75;;;10.56;100.00
24666;BME280;29726;53.532;-1.478;2024-02-04T02:27:09;101075.63;;;10.54;100.00
24666;BME280;29726;53.532;-1.478;2024-02-04T02:29:53;101054.91;;;10.42;100.00
24666;BME280;29726;53.532;-1.478;2024-02-04T02:32:37;101071.28;;;10.53;100.00
24666;BME280;29726;53.532;-1.478;2024-02-04T02:35:21;101055.25;;;10.44;100.00
24666;BME280;29726;53.532;-1.478;2024-02-04T02:38:41;101081.97;;;10.54;100.00
24666;BME280;29726;53.532;-1.478;2024-02-04T02:41:16;101068.94;;;10.51;100.00
24666;BME280;29726;53.532;-1.478;2024-02-04T02:44:02;101053.38;;;10.41;100.00
24666;BME280;29726;53.532;-1.478;2024-02-04T02:46:47;101058.56;;;10.52;100.00
24666;BME280;29726;53.532;-1.478;2024-02-04T02:49:31;101055.78;;;10.52;100.00
24666;BME280;29726;53.532;-1.478;2024-02-04T02:52:15;101041.50;;;10.50;100.00
24666;BME280;29726;53.532;-1.478;2024-02-04T02:54:59;101057.00;;;10.51;100.00
24666;BME280;29726;53.532;-1.478;2024-02-04T02:57:43;101029.09;;;10.51;100.00
24666;BME280;29726;53.532;-1.478;2024-02-04T03:00:27;101034.78;;;10.47;100.00
24666;BME280;29726;53.532;-1.478;2024-02-04T03:03:11;101033.13;;;10.50;100.00
24666;BME280;29726;53.532;-1.478;2024-02-04T03:05:54;101055.78;;;10.52;100.00
24666;BME280;29726;53.532;-1.478;2024-02-04T03:08:38;101049.88;;;10.50;100.00
24666;BME280;29726;53.532;-1.478;2024-02-04T03:11:22;101056.22;;;10.50;100.00
24666;BME280;29726;53.532;-1.478;2024-02-04T03:14:06;101047.84;;;10.50;100.00
24666;BME280;29726;53.532;-1.478;2024-02-04T03:16:50;101043.50;;;10.49;100.00
24666;BME280;29726;53.532;-1.478;2024-02-04T03:19:34;101046.59;;;10.51;100.00
24666;BME280;29726;53.532;-1.478;2024-02-04T03:22:19;101042.72;;;10.49;100.00
24666;BME280;29726;53.532;-1.478;2024-02-04T03:25:04;101044.72;;;10.48;100.00
24666;BME280;29726;53.532;-1.478;2024-02-04T03:27:48;101029.53;;;10.49;100.00
24666;BME280;29726;53.532;-1.478;2024-02-04T03:30:32;101018.38;;;10.49;100.00
24666;BME280;29726;53.532;-1.478;2024-02-04T03:33:16;101021.97;;;10.50;100.00
24666;BME280;29726;53.532;-1.478;2024-02-04T03:36:00;101006.56;;;10.45;100.00
24666;BME280;29726;53.532;-1.478;2024-02-04T03:38:44;101025.50;;;10.50;100.00
24666;BME280;29726;53.532;-1.478;2024-02-04T03:41:28;101023.94;;;10.49;100.00
24666;BME280;29726;53.532;-1.478;2024-02-04T03:44:12;101017.13;;;10.50;100.00
24666;BME280;29726;53.532;-1.478;2024-02-04T03:46:56;101007.69;;;10.48;100.00
24666;BME280;29726;53.532;-1.478;2024-02-04T03:49:40;101007.69;;;10.48;100.00
24666;BME280;29726;53.532;-1.478;2024-02-04T03:52:24;100993.72;;;10.48;100.00
24666;BME280;29726;53.532;-1.478;2024-02-04T03:55:08;100991.69;;;10.48;100.00
24666;BME280;29726;53.532;-1.478;2024-02-04T03:57:54;100983.31;;;10.48;100.00
24666;BME280;29726;53.532;-1.478;2024-02-04T04:00:39;100980.09;;;10.50;100.00
24666;BME280;29726;53.532;-1.478;2024-02-04T04:03:23;100982.88;;;10.50;100.00
24666;BME280;29726;53.532;-1.478;2024-02-04T04:06:08;100986.91;;;10.49;100.00
24666;BME280;29726;53.532;-1.478;2024-02-04T04:08:52;100974.75;;;10.43;100.00
24666;BME280;29726;53.532;-1.478;2024-02-04T04:11:37;100982.09;;;10.49;100.00
24666;BME280;29726;53.532;-1.478;2024-02-04T04:14:21;100979.28;;;10.49;100.00
24666;BME280;29726;53.532;-1.478;2024-02-04T04:17:05;100981.75;;;10.47;100.00
24666;BME280;29726;53.532;-1.478;2024-02-04T04:19:49;100961.59;;;10.43;100.00
24666;BME280;29726;53.532;-1.478;2024-02-04T04:22:33;100964.25;;;10.47;100.00
24666;BME280;29726;53.532;-1.478;2024-02-04T04:25:17;100966.91;;;10.50;100.00
24666;BME280;29726;53.532;-1.478;2024-02-04T04:28:02;100965.81;;;10.48;100.00
24666;BME280;29726;53.532;-1.478;2024-02-04T04:30:46;100952.63;;;10.48;100.00
24666;BME280;29726;53.532;-1.478;2024-02-04T04:33:30;100905.72;;;10.34;100.00
24666;BME280;29726;53.532;-1.478;2024-02-04T04:36:14;100924.06;;;10.44;100.00
24666;BME280;29726;53.532;-1.478;2024-02-04T04:38:58;100935.09;;;10.48;100.00
24666;BME280;29726;53.532;-1.478;2024-02-04T04:41:44;100926.72;;;10.48;100.00
24666;BME280;29726;53.532;-1.478;2024-02-04T04:44:28;100917.25;;;10.45;100.00
24666;BME280;29726;53.532;-1.478;2024-02-04T04:47:14;100915.38;;;10.42;100.00
24666;BME280;29726;53.532;-1.478;2024-02-04T04:49:58;100915.38;;;10.42;100.00
24666;BME280;29726;53.532;-1.478;2024-02-04T04:52:42;100918.47;;;10.44;100.00
24666;BME280;29726;53.532;-1.478;2024-02-04T04:55:26;100921.72;;;10.43;100.00
24666;BME280;29726;53.532;-1.478;2024-02-04T04:58:10;100935.22;;;10.44;100.00
24666;BME280;29726;53.532;-1.478;2024-02-04T05:00:54;100910.19;;;10.32;100.00
24666;BME280;29726;53.532;-1.478;2024-02-04T05:03:40;100920.16;;;10.42;100.00
24666;BME280;29726;53.532;-1.478;2024-02-04T05:06:24;100918.28;;;10.39;100.00
24666;BME280;29726;53.532;-1.478;2024-02-04T05:09:08;100907.91;;;10.39;100.00
24666;BME280;29726;53.532;-1.478;2024-02-04T05:11:52;100915.50;;;10.39;100.00
24666;BME280;29726;53.532;-1.478;2024-02-04T05:14:36;100917.06;;;10.40;100.00
24666;BME280;29726;53.532;-1.478;2024-02-04T05:17:20;100929.44;;;10.39;100.00
24666;BME280;29726;53.532;-1.478;2024-02-04T05:20:04;100925.56;;;10.36;100.00
24666;BME280;29726;53.532;-1.478;2024-02-04T05:22:49;100926.81;;;10.35;100.00
24666;BME280;29726;53.532;-1.478;2024-02-04T05:25:33;100926.03;;;10.35;100.00
24666;BME280;29726;53.532;-1.478;2024-02-04T05:28:17;100914.09;;;10.34;100.00
24666;BME280;29726;53.532;-1.478;2024-02-04T05:31:02;100900.59;;;10.33;100.00
24666;BME280;29726;53.532;-1.478;2024-02-04T05:33:46;100913.75;;;10.32;100.00
24666;BME280;29726;53.532;-1.478;2024-02-04T05:36:30;100886.75;;;10.29;100.00
24666;BME280;29726;53.532;-1.478;2024-02-04T05:39:15;100900.25;;;10.31;100.00
24666;BME280;29726;53.532;-1.478;2024-02-04T05:42:00;100889.53;;;10.29;100.00
24666;BME280;29726;53.532;-1.478;2024-02-04T05:44:44;100883.19;;;10.29;100.00
24666;BME280;29726;53.532;-1.478;2024-02-04T05:47:28;100877.75;;;10.25;100.00
24666;BME280;29726;53.532;-1.478;2024-02-04T05:50:12;100886.44;;;10.27;100.00
24666;BME280;29726;53.532;-1.478;2024-02-04T05:52:56;100880.22;;;10.23;100.00
24666;BME280;29726;53.532;-1.478;2024-02-04T05:55:41;100884.25;;;10.22;100.00
24666;BME280;29726;53.532;-1.478;2024-02-04T05:58:25;100872.72;;;10.11;100.00
24666;BME280;29726;53.532;-1.478;2024-02-04T06:01:08;100883.91;;;10.20;100.00
24666;BME280;29726;53.532;-1.478;2024-02-04T06:03:53;100895.09;;;10.20;100.00
24666;BME280;29726;53.532;-1.478;2024-02-04T06:06:36;100884.75;;;10.08;100.00
24666;BME280;29726;53.532;-1.478;2024-02-04T06:09:20;100900.66;;;10.20;100.00
24666;BME280;29726;53.532;-1.478;2024-02-04T06:12:04;100896.75;;;10.18;100.00
24666;BME280;29726;53.532;-1.478;2024-02-04T06:14:50;100886.50;;;10.15;100.00
24666;BME280;29726;53.532;-1.478;2024-02-04T06:17:34;100884.03;;;10.17;100.00
24666;BME280;29726;53.532;-1.478;2024-02-04T06:20:18;100884.03;;;10.17;100.00
24666;BME280;29726;53.532;-1.478;2024-02-04T06:23:01;100875.34;;;10.15;100.00
24666;BME280;29726;53.532;-1.478;2024-02-04T06:25:45;100860.00;;;10.10;100.00
24666;BME280;29726;53.532;-1.478;2024-02-04T06:28:29;100871.00;;;10.14;100.00
24666;BME280;29726;53.532;-1.478;2024-02-04T06:31:13;100862.78;;;10.10;100.00
24666;BME280;29726;53.532;-1.478;2024-02-04T06:33:57;100863.56;;;10.11;100.00
24666;BME280;29726;53.532;-1.478;2024-02-04T06:36:44;100848.69;;;10.14;100.00
24666;BME280;29726;53.532;-1.478;2024-02-04T06:39:29;100848.06;;;10.10;100.00
24666;BME280;29726;53.532;-1.478;2024-02-04T06:42:13;100850.72;;;10.13;100.00
24666;BME280;29726;53.532;-1.478;2024-02-04T06:44:57;100855.50;;;10.13;100.00
24666;BME280;29726;53.532;-1.478;2024-02-04T06:47:43;100842.34;;;10.13;100.00
24666;BME280;29726;53.532;-1.478;2024-02-04T06:50:28;100838.44;;;10.11;100.00
24666;BME280;29726;53.532;-1.478;2024-02-04T06:53:12;100831.97;;;10.14;100.00
24666;BME280;29726;53.532;-1.478;2024-02-04T06:55:56;100833.50;;;10.15;100.00
24666;BME280;29726;53.532;-1.478;2024-02-04T06:58:41;100831.03;;;10.17;100.00
24666;BME280;29726;53.532;-1.478;2024-02-04T07:01:25;100838.34;;;10.14;100.00
24666;BME280;29726;53.532;-1.478;2024-02-04T07:04:09;100823.16;;;10.15;100.00
24666;BME280;29726;53.532;-1.478;2024-02-04T07:06:53;100817.56;;;10.15;100.00
24666;BME280;29726;53.532;-1.478;2024-02-04T07:09:37;100819.88;;;10.17;100.00
24666;BME280;29726;53.532;-1.478;2024-02-04T07:12:21;100823.78;;;10.19;100.00
24666;BME280;29726;53.532;-1.478;2024-02-04T07:15:05;100816.34;;;10.16;100.00
24666;BME280;29726;53.532;-1.478;2024-02-04T07:17:49;100812.31;;;10.17;100.00
24666;BME280;29726;53.532;-1.478;2024-02-04T07:20:33;100805.50;;;10.18;100.00
24666;BME280;29726;53.532;-1.478;2024-02-04T07:23:18;100805.50;;;10.18;100.00
24666;BME280;29726;53.532;-1.478;2024-02-04T07:26:01;100771.06;;;10.12;100.00
24666;BME280;29726;53.532;-1.478;2024-02-04T07:28:45;100800.09;;;10.24;100.00
24666;BME280;29726;53.532;-1.478;2024-02-04T07:31:29;100812.03;;;10.24;100.00
24666;BME280;29726;53.532;-1.478;2024-02-04T07:34:13;100814.50;;;10.22;100.00
24666;BME280;29726;53.532;-1.478;2024-02-04T07:36:57;100812.03;;;10.24;100.00
24666;BME280;29726;53.532;-1.478;2024-02-04T07:39:42;100813.13;;;10.27;100.00
24666;BME280;29726;53.532;-1.478;2024-02-04T07:42:25;100809.09;;;10.28;100.00
24666;BME280;29726;53.532;-1.478;2024-02-04T07:45:09;100806.31;;;10.28;100.00
24666;BME280;29726;53.532;-1.478;2024-02-04T07:47:54;100809.75;;;10.32;100.00
24666;BME280;29726;53.532;-1.478;2024-02-04T07:50:38;100802.13;;;10.32;100.00
24666;BME280;29726;53.532;-1.478;2024-02-04T07:53:21;100808.19;;;10.31;100.00
24666;BME280;29726;53.532;-1.478;2024-02-04T07:56:07;100806.50;;;10.33;100.00
24666;BME280;29726;53.532;-1.478;2024-02-04T07:58:51;100802.91;;;10.33;100.00
24666;BME280;29726;53.532;-1.478;2024-02-04T08:01:36;100803.72;;;10.33;100.00
24666;BME280;29726;53.532;-1.478;2024-02-04T08:04:20;100826.66;;;10.37;100.00
24666;BME280;29726;53.532;-1.478;2024-02-04T08:07:04;100829.47;;;10.37;100.00
24666;BME280;29726;53.532;-1.478;2024-02-04T08:09:48;100822.16;;;10.40;100.00
24666;BME280;29726;53.532;-1.478;2024-02-04T08:12:34;100828.53;;;10.40;100.00
24666;BME280;29726;53.532;-1.478;2024-02-04T08:15:18;100829.31;;;10.41;100.00
24666;BME280;29726;53.532;-1.478;2024-02-04T08:18:03;100821.72;;;10.41;100.00
24666;BME280;29726;53.532;-1.478;2024-02-04T08:20:47;100821.25;;;10.43;100.00
24666;BME280;29726;53.532;-1.478;2024-02-04T08:23:32;100818.47;;;10.43;100.00
24666;BME280;29726;53.532;-1.478;2024-02-04T08:26:16;100829.97;;;10.45;100.00
24666;BME280;29726;53.532;-1.478;2024-02-04T08:29:00;100830.41;;;10.43;100.00
24666;BME280;29726;53.532;-1.478;2024-02-04T08:31:44;100834.16;;;10.49;100.00
24666;BME280;29726;53.532;-1.478;2024-02-04T08:34:28;100833.72;;;10.51;100.00
24666;BME280;29726;53.532;-1.478;2024-02-04T08:37:12;100816.97;;;10.51;100.00
24666;BME280;29726;53.532;-1.478;2024-02-04T08:39:56;100813.69;;;10.52;100.00
24666;BME280;29726;53.532;-1.478;2024-02-04T08:42:40;100822.84;;;10.53;100.00
24666;BME280;29726;53.532;-1.478;2024-02-04T08:45:23;100819.28;;;10.52;100.00
24666;BME280;29726;53.532;-1.478;2024-02-04T08:48:07;100814.34;;;10.56;100.00
24666;BME280;29726;53.532;-1.478;2024-02-04T08:50:51;100821.50;;;10.57;100.00
24666;BME280;29726;53.532;-1.478;2024-02-04T08:53:38;100822.25;;;10.58;100.00
24666;BME280;29726;53.532;-1.478;2024-02-04T08:56:22;100806.28;;;10.58;100.00
24666;BME280;29726;53.532;-1.478;2024-02-04T08:59:06;100808.78;;;10.56;100.00
24666;BME280;29726;53.532;-1.478;2024-02-04T09:01:50;100815.28;;;10.62;100.00
24666;BME280;29726;53.532;-1.478;2024-02-04T09:04:34;100797.72;;;10.53;100.00
24666;BME280;29726;53.532;-1.478;2024-02-04T09:07:24;100808.78;;;10.65;100.00
24666;BME280;29726;53.532;-1.478;2024-02-04T09:10:08;100810.78;;;10.65;100.00
24666;BME280;29726;53.532;-1.478;2024-02-04T09:12:53;100797.31;;;10.63;100.00
24666;BME280;29726;53.532;-1.478;2024-02-04T09:15:37;100797.63;;;10.65;100.00
24666;BME280;29726;53.532;-1.478;2024-02-04T09:18:21;100796.69;;;10.68;100.00
24666;BME280;29726;53.532;-1.478;2024-02-04T09:21:05;100802.28;;;10.68;100.00
24666;BME280;29726;53.532;-1.478;2024-02-04T09:23:48;100806.19;;;10.71;100.00
24666;BME280;29726;53.532;-1.478;2024-02-04T09:26:32;100801.34;;;10.71;100.00
24666;BME280;29726;53.532;-1.478;2024-02-04T09:29:16;100798.13;;;10.73;100.00
24666;BME280;29726;53.532;-1.478;2024-02-04T09:32:00;100806.00;;;10.74;100.00
24666;BME280;29726;53.532;-1.478;2024-02-04T09:34:44;100789.25;;;10.74;100.00
24666;BME280;29726;53.532;-1.478;2024-02-04T09:37:28;100784.47;;;10.75;100.00
24666;BME280;29726;53.532;-1.478;2024-02-04T09:40:13;100791.13;;;10.77;100.00
24666;BME280;29726;53.532;-1.478;2024-02-04T09:42:58;100794.25;;;10.79;100.00
24666;BME280;29726;53.532;-1.478;2024-02-04T09:45:43;100782.28;;;10.79;100.00
24666;BME280;29726;53.532;-1.478;2024-02-04T09:48:31;100768.31;;;10.70;100.00
24666;BME280;29726;53.532;-1.478;2024-02-04T09:51:16;100782.16;;;10.82;100.00
24666;BME280;29726;53.532;-1.478;2024-02-04T09:54:04;100773.78;;;10.82;100.00
24666;BME280;29726;53.532;-1.478;2024-02-04T09:56:52;100785.25;;;10.84;100.00
24666;BME280;29726;53.532;-1.478;2024-02-04T09:59:36;100773.16;;;10.87;100.00
24666;BME280;29726;53.532;-1.478;2024-02-04T10:02:20;100769.13;;;10.88;100.00
24666;BME280;29726;53.532;-1.478;2024-02-04T10:05:04;100768.66;;;10.90;100.00
24666;BME280;29726;53.532;-1.478;2024-02-04T10:07:49;100763.84;;;10.90;100.00
24666;BME280;29726;53.532;-1.478;2024-02-04T10:10:33;100741.19;;;10.88;100.00
24666;BME280;29726;53.532;-1.478;2024-02-04T10:13:17;100741.81;;;10.92;100.00
24666;BME280;29726;53.532;-1.478;2024-02-04T10:16:01;100733.00;;;10.94;100.00
24666;BME280;29726;53.532;-1.478;2024-02-04T10:18:47;100738.09;;;10.95;100.00
24666;BME280;29726;53.532;-1.478;2024-02-04T10:21:32;100723.69;;;10.97;100.00
24666;BME280;29726;53.532;-1.478;2024-02-04T10:24:16;100721.34;;;10.95;100.00
24666;BME280;29726;53.532;-1.478;2024-02-04T10:27:00;100718.84;;;10.97;100.00
24666;BME280;29726;53.532;-1.478;2024-02-04T10:29:44;100723.06;;;11.02;100.00
24666;BME280;29726;53.532;-1.478;2024-02-04T10:32:28;100703.94;;;11.00;100.00
24666;BME280;29726;53.532;-1.478;2024-02-04T10:35:12;100699.00;;;11.04;100.00
24666;BME280;29726;53.532;-1.478;2024-02-04T10:37:56;100708.16;;;11.05;100.00
24666;BME280;29726;53.532;-1.478;2024-02-04T10:40:40;100692.63;;;11.04;100.00
24666;BME280;29726;53.532;-1.478;2024-02-04T10:43:24;100687.34;;;11.06;100.00
24666;BME280;29726;53.532;-1.478;2024-02-04T10:46:23;100687.22;;;11.09;100.00
24666;BME280;29726;53.532;-1.478;2024-02-04T10:49:14;100680.69;;;11.12;100.00
24666;BME280;29726;53.532;-1.478;2024-02-04T10:51:59;100660.81;;;11.10;100.00
24666;BME280;29726;53.532;-1.478;2024-02-04T10:54:46;100665.47;;;11.13;100.00
24666;BME280;29726;53.532;-1.478;2024-02-04T10:57:30;100663.78;;;11.16;100.00
24666;BME280;29726;53.532;-1.478;2024-02-04T11:00:15;100659.25;;;11.18;100.00
24666;BME280;29726;53.532;-1.478;2024-02-04T11:03:02;100654.75;;;11.21;100.00
24666;BME280;29726;53.532;-1.478;2024-02-04T11:05:49;100654.28;;;11.22;100.00
24666;BME280;29726;53.532;-1.478;2024-02-04T11:08:34;100623.22;;;11.20;100.00
24666;BME280;29726;53.532;-1.478;2024-02-04T11:11:27;100637.50;;;11.22;100.00
24666;BME280;29726;53.532;-1.478;2024-02-04T11:14:14;100639.84;;;11.24;100.00
24666;BME280;29726;53.532;-1.478;2024-02-04T11:17:26;100633.16;;;11.30;100.00
24666;BME280;29726;53.532;-1.478;2024-02-04T11:20:36;100620.25;;;11.33;100.00
24666;BME280;29726;53.532;-1.478;2024-02-04T11:26:36;100615.25;;;11.37;100.00
24666;BME280;29726;53.532;-1.478;2024-02-04T11:29:25;100616.06;;;11.37;100.00
24666;BME280;29726;53.532;-1.478;2024-02-04T11:32:11;100612.81;;;11.39;100.00
24666;BME280;29726;53.532;-1.478;2024-02-04T11:34:55;100593.25;;;11.39;100.00
24666;BME280;29726;53.532;-1.478;2024-02-04T11:37:45;100598.19;;;11.44;100.00
24666;BME280;29726;53.532;-1.478;2024-02-04T11:40:37;100595.53;;;11.49;100.00
24666;BME280;29726;53.532;-1.478;2024-02-04T11:43:23;100585.09;;;11.50;100.00
24666;BME280;29726;53.532;-1.478;2024-02-04T11:46:16;100584.66;;;11.51;100.00
24666;BME280;29726;53.532;-1.478;2024-02-04T11:49:00;100567.88;;;11.51;100.00
24666;BME280;29726;53.532;-1.478;2024-02-04T11:51:50;100556.69;;;11.51;100.00
24666;BME280;29726;53.532;-1.478;2024-02-04T11:54:35;100564.47;;;11.56;100.00
24666;BME280;29726;53.532;-1.478;2024-02-04T11:57:19;100563.22;;;11.57;100.00
24666;BME280;29726;53.532;-1.478;2024-02-04T12:00:04;100561.00;;;11.61;100.00
24666;BME280;29726;53.532;-1.478;2024-02-04T12:03:05;100562.09;;;11.63;100.00
24666;BME280;29726;53.532;-1.478;2024-02-04T12:05:50;100558.81;;;11.65;100.00
24666;BME280;29726;53.532;-1.478;2024-02-04T12:08:34;100538.81;;;11.57;100.00
24666;BME280;29726;53.532;-1.478;2024-02-04T12:11:18;100541.44;;;11.61;100.00
24666;BME280;29726;53.532;-1.478;2024-02-04T12:14:04;100552.28;;;11.68;100.00
24666;BME280;29726;53.532;-1.478;2024-02-04T12:16:49;100544.50;;;11.72;100.00
24666;BME280;29726;53.532;-1.478;2024-02-04T12:19:32;100534.53;;;11.71;100.00
24666;BME280;29726;53.532;-1.478;2024-02-04T12:22:16;100531.13;;;11.76;100.00
24666;BME280;29726;53.532;-1.478;2024-02-04T12:25:02;100533.72;;;11.79;100.00
24666;BME280;29726;53.532;-1.478;2024-02-04T12:27:46;100534.81;;;11.82;100.00
24666;BME280;29726;53.532;-1.478;2024-02-04T12:30:32;100546.28;;;11.84;100.00
24666;BME280;29726;53.532;-1.478;2024-02-04T12:33:17;100527.06;;;11.77;100.00
24666;BME280;29726;53.532;-1.478;2024-02-04T12:36:02;100545.03;;;11.85;100.00
24666;BME280;29726;53.532;-1.478;2024-02-04T12:38:56;100544.38;;;11.90;100.00
24666;BME280;29726;53.532;-1.478;2024-02-04T12:41:41;100519.34;;;11.95;100.00
24666;BME280;29726;53.532;-1.478;2024-02-04T12:44:26;100527.56;;;11.99;100.00
24666;BME280;29726;53.532;-1.478;2024-02-04T12:47:10;100527.56;;;11.99;100.00
24666;BME280;29726;53.532;-1.478;2024-02-04T12:49:58;100523.22;;;11.98;100.00
24666;BME280;29726;53.532;-1.478;2024-02-04T12:52:42;100520.81;;;12.05;100.00
24666;BME280;29726;53.532;-1.478;2024-02-04T12:55:27;100531.53;;;12.07;100.00
24666;BME280;29726;53.532;-1.478;2024-02-04T12:58:17;100520.06;;;12.05;100.00
24666;BME280;29726;53.532;-1.478;2024-02-04T13:01:02;100512.81;;;12.13;100.00
24666;BME280;29726;53.532;-1.478;2024-02-04T13:03:48;100501.34;;;12.11;100.00
24666;BME280;29726;53.532;-1.478;2024-02-04T13:06:38;100505.97;;;12.14;100.00
24666;BME280;29726;53.532;-1.478;2024-02-04T13:09:23;100496.94;;;12.19;100.00
24666;BME280;29726;53.532;-1.478;2024-02-04T13:12:09;100512.00;;;12.21;100.00
24666;BME280;29726;53.532;-1.478;2024-02-04T13:14:53;100506.97;;;12.25;100.00
24666;BME280;29726;53.532;-1.478;2024-02-04T13:17:38;100496.28;;;12.24;100.00
24666;BME280;29726;53.532;-1.478;2024-02-04T13:20:22;100485.16;;;12.29;100.00
24666;BME280;29726;53.532;-1.478;2024-02-04T13:23:06;100507.38;;;12.33;100.00
24666;BME280;29726;53.532;-1.478;2024-02-04T13:25:50;100488.59;;;12.33;100.00
24666;BME280;29726;53.532;-1.478;2024-02-04T13:28:34;100470.03;;;12.36;100.00
24666;BME280;29726;53.532;-1.478;2024-02-04T13:31:18;100491.75;;;12.41;100.00
24666;BME280;29726;53.532;-1.478;2024-02-04T13:34:02;100482.13;;;12.42;100.00
24666;BME280;29726;53.532;-1.478;2024-02-04T13:36:48;100488.31;;;12.46;100.00
24666;BME280;29726;53.532;-1.478;2024-02-04T13:39:32;100485.31;;;12.49;100.00
24666;BME280;29726;53.532;-1.478;2024-02-04T13:42:16;100475.06;;;12.46;100.00
24666;BME280;29726;53.532;-1.478;2024-02-04T13:45:00;100473.63;;;12.51;100.00
24666;BME280;29726;53.532;-1.478;2024-02-04T13:47:45;100482.91;;;12.57;100.00
24666;BME280;29726;53.532;-1.478;2024-02-04T13:50:29;100488.78;;;12.59;100.00
24666;BME280;29726;53.532;-1.478;2024-02-04T13:53:13;100477.88;;;12.61;100.00
24666;BME280;29726;53.532;-1.478;2024-02-04T13:55:58;100482.22;;;12.62;100.00
24666;BME280;29726;53.532;-1.478;2024-02-04T13:58:42;100480.78;;;12.66;100.00
24666;BME280;29726;53.532;-1.478;2024-02-04T14:01:26;100475.97;;;12.67;100.00
24666;BME280;29726;53.532;-1.478;2024-02-04T14:04:10;100486.97;;;12.70;100.00
24666;BME280;29726;53.532;-1.478;2024-02-04T14:06:54;100496.44;;;12.73;100.00